Weather at Campo di Volo Giovanni Zaccini

Public forecast

Using degrees Celsius for public forecast. Weather courtesy of forecast.io.

Closest aviation weather report (METAR) to Campo di Volo Giovanni Zaccini

Closest report is Frosinone Air Base, 5.5 nm (10.3 km) NNW.

2024/05/21 14:55 (retrieved 54 minutes ago)

LIRH 211455Z 22004KT 9999 BKN035 23/16 Q1010

Closest aviation forecast (TAF) to Campo di Volo Giovanni Zaccini

Closest forecast is Ciampino–G. B. Pastine International Airport, 36.5 nm (67.7 km) WNW.

2024/05/21 12:00 (retrieved 4 hours ago)

TAF LIRA 211100Z 2112/2212 26010KT 9999 BKN030 BECMG 2116/2118 17008KT BECMG 2208/2210 24010KT